Time;durP1;ratioP1;P1;durP2;ratioP2;P2;SDS_P1;SDS_P2;PMS_P1;PMS_P2;Temp;Humidity;BMP_temperature;BMP_pressure;BME280_temperature;BME280_humidity;BME280_pressure;Samples;Min_cycle;Max_cycle;Signal;HPM_P1;HPM_P2
2022/09/02 00:01:01;;;;;;;14.70;7.32;;;;;;;;;;2000925;29;20108;-88
2022/09/02 00:02:01;;;;;;;12.55;7.88;;;;;;;;;;2001737;29;20038;-88
2022/09/02 00:03:03;;;;;;;11.20;7.57;;;;;;;;;;2009160;29;20045;-88
2022/09/02 00:04:08;;;;;;;10.98;7.82;;;;;;;;;;2009812;29;20025;-88
2022/09/02 00:05:08;;;;;;;10.80;7.68;;;;;;;;;;2009938;29;20056;-88
2022/09/02 00:06:09;;;;;;;11.80;8.52;;;;;;;;;;2009822;29;20124;-88
2022/09/02 00:07:10;;;;;;;13.18;8.05;;;;;;;;;;2009709;29;20049;-88
2022/09/02 00:08:11;;;;;;;13.02;7.68;;;;;;;;;;1655774;29;10342789;-88
2022/09/02 00:09:14;;;;;;;11.88;7.57;;;;;;;;;;2001436;29;20033;-88
2022/09/02 00:10:14;;;;;;;13.13;7.82;;;;;;;;;;2009713;29;20078;-89
2022/09/02 00:11:17;;;;;;;14.48;7.95;;;;;;;;;;2009750;29;20037;-88
2022/09/02 00:12:18;;;;;;;11.85;8.05;;;;;;;;;;2001388;29;20359;-88
2022/09/02 00:13:19;;;;;;;13.73;8.18;;;;;;;;;;2001288;29;20073;-88
2022/09/02 00:14:29;;;;;;;11.30;7.53;;;;;;;;;;2001088;29;20630;-88
2022/09/02 00:15:29;;;;;;;14.73;8.05;;;;;;;;;;1994776;29;20038;-88
2022/09/02 00:16:32;;;;;;;11.43;7.85;;;;;;;;;;2001068;29;20030;-88
2022/09/02 00:17:32;;;;;;;9.75;7.03;;;;;;;;;;2009003;29;20029;-88
2022/09/02 00:18:32;;;;;;;11.10;7.93;;;;;;;;;;2001103;29;20126;-87
2022/09/02 00:19:33;;;;;;;11.82;7.60;;;;;;;;;;2001357;29;20034;-88
2022/09/02 00:20:34;;;;;;;12.13;8.32;;;;;;;;;;2008935;29;20029;-88
2022/09/02 00:21:34;;;;;;;15.55;8.27;;;;;;;;;;2001226;29;20097;-88
2022/09/02 00:22:35;;;;;;;9.73;7.40;;;;;;;;;;1993548;29;20023;-88
2022/09/02 00:23:37;;;;;;;13.10;8.50;;;;;;;;;;2001233;29;20082;-88
2022/09/02 00:24:38;;;;;;;12.27;8.55;;;;;;;;;;2008738;29;20032;-88
2022/09/02 00:25:39;;;;;;;11.55;7.35;;;;;;;;;;2008852;29;20405;-88
2022/09/02 00:26:40;;;;;;;11.60;7.70;;;;;;;;;;2009373;29;20029;-88
2022/09/02 00:27:40;;;;;;;10.50;7.43;;;;;;;;;;2009340;29;20097;-88
2022/09/02 00:28:42;;;;;;;9.82;7.57;;;;;;;;;;2001075;29;20026;-88
2022/09/02 00:29:42;;;;;;;10.93;7.75;;;;;;;;;;2001289;29;20053;-88
2022/09/02 00:30:43;;;;;;;12.93;7.88;;;;;;;;;;2008687;29;20482;-88
2022/09/02 00:31:45;;;;;;;14.02;8.10;;;;;;;;;;2008841;29;20404;-87
2022/09/02 00:32:46;;;;;;;10.05;7.40;;;;;;;;;;2009545;29;20136;-88
2022/09/02 00:33:47;;;;;;;14.23;7.60;;;;;;;;;;2009421;29;20033;-88
2022/09/02 00:34:47;;;;;;;11.50;7.38;;;;;;;;;;2009461;29;20052;-88
2022/09/02 00:35:48;;;;;;;11.75;7.60;;;;;;;;;;2009458;29;20037;-88
2022/09/02 00:36:48;;;;;;;15.98;8.93;;;;;;;;;;2001137;29;20029;-88
2022/09/02 00:37:49;;;;;;;15.85;7.70;;;;;;;;;;1993512;29;20037;-88
2022/09/02 00:38:50;;;;;;;12.48;7.80;;;;;;;;;;1993535;29;20037;-88
2022/09/02 00:39:52;;;;;;;14.45;8.07;;;;;;;;;;2001182;29;20044;-88
2022/09/02 00:40:52;;;;;;;9.43;7.10;;;;;;;;;;2009395;29;20056;-88
2022/09/02 00:41:53;;;;;;;11.77;7.28;;;;;;;;;;2009351;29;20528;-88
2022/09/02 00:42:54;;;;;;;11.13;7.57;;;;;;;;;;2009538;29;20038;-88
2022/09/02 00:44:02;;;;;;;11.85;7.82;;;;;;;;;;2009311;29;20045;-88
2022/09/02 00:45:05;;;;;;;11.15;6.93;;;;;;;;;;2001104;29;20076;-88
2022/09/02 00:46:07;;;;;;;12.43;7.53;;;;;;;;;;2001415;29;20030;-88
2022/09/02 00:47:07;;;;;;;11.48;7.35;;;;;;;;;;2009373;29;20033;-88
2022/09/02 00:48:08;;;;;;;12.48;7.85;;;;;;;;;;2000936;29;20541;-87
2022/09/02 00:49:23;;;;;;;14.18;7.82;;;;;;;;;;2001108;29;20545;-87
2022/09/02 00:50:34;;;;;;;11.20;7.24;;;;;;;;;;1859385;29;10276365;-86
2022/09/02 00:51:51;;;;;;;11.27;7.82;;;;;;;;;;2009364;29;20495;-87
2022/09/02 00:52:57;;;;;;;10.68;7.70;;;;;;;;;;2009306;29;20033;-88
2022/09/02 00:53:58;;;;;;;12.05;7.53;;;;;;;;;;2009417;29;20032;-87
2022/09/02 00:55:06;;;;;;;10.18;7.25;;;;;;;;;;2009275;29;20108;-87
2022/09/02 00:56:11;;;;;;;12.07;7.85;;;;;;;;;;2009226;29;20029;-88
2022/09/02 00:57:18;;;;;;;11.85;7.65;;;;;;;;;;2011963;29;20049;-87
2022/09/02 00:58:24;;;;;;;12.38;7.43;;;;;;;;;;2000928;29;20093;-86
2022/09/02 00:59:45;;;;;;;10.70;7.78;;;;;;;;;;2001746;29;20033;-86
2022/09/02 01:00:48;;;;;;;13.15;7.25;;;;;;;;;;2000827;29;20560;-87
2022/09/02 01:01:49;;;;;;;8.32;7.10;;;;;;;;;;1993562;29;20030;-88
2022/09/02 01:02:54;;;;;;;11.23;7.35;;;;;;;;;;2001005;29;20030;-87
2022/09/02 01:03:55;;;;;;;12.65;7.72;;;;;;;;;;2009393;29;20044;-88
2022/09/02 01:04:57;;;;;;;17.27;8.05;;;;;;;;;;1825538;29;5001989;-88
2022/09/02 01:05:59;;;;;;;12.60;7.55;;;;;;;;;;1998926;29;20603;-88
2022/09/02 01:07:00;;;;;;;10.02;7.45;;;;;;;;;;1673050;29;10000297;-88
2022/09/02 01:08:01;;;;;;;12.63;6.85;;;;;;;;;;2008483;29;20128;-87
2022/09/02 01:09:08;;;;;;;9.20;6.63;;;;;;;;;;2016177;29;20037;-86
2022/09/02 01:10:14;;;;;;;11.65;7.85;;;;;;;;;;2008506;29;20386;-86
2022/09/02 01:11:17;;;;;;;9.60;7.13;;;;;;;;;;2001292;29;20045;-85
2022/09/02 01:12:18;;;;;;;13.07;7.43;;;;;;;;;;2000387;29;20030;-87
2022/09/02 01:13:24;;;;;;;12.18;7.72;;;;;;;;;;2008395;29;20057;-87
2022/09/02 01:14:25;;;;;;;12.93;8.02;;;;;;;;;;2011772;29;20051;-87
2022/09/02 01:15:26;;;;;;;9.07;7.07;;;;;;;;;;2008313;29;20033;-87
2022/09/02 01:16:32;;;;;;;11.18;7.82;;;;;;;;;;2008462;29;20124;-87
2022/09/02 01:17:33;;;;;;;16.27;7.65;;;;;;;;;;2016039;29;20029;-87
2022/09/02 01:18:35;;;;;;;10.57;7.28;;;;;;;;;;2016074;29;20073;-87
2022/09/02 01:19:41;;;;;;;10.85;7.05;;;;;;;;;;2008582;29;20112;-87
2022/09/02 01:20:42;;;;;;;12.32;7.55;;;;;;;;;;1666904;29;10379480;-87
2022/09/02 01:21:47;;;;;;;12.43;7.60;;;;;;;;;;2016193;29;20063;-87
2022/09/02 01:22:48;;;;;;;10.25;7.30;;;;;;;;;;2016065;29;20039;-87
2022/09/02 01:23:50;;;;;;;10.25;7.05;;;;;;;;;;2008256;29;20029;-88
2022/09/02 01:24:51;;;;;;;9.95;6.75;;;;;;;;;;2008561;29;20037;-87
2022/09/02 01:25:52;;;;;;;12.02;7.03;;;;;;;;;;2016745;29;20036;-87
2022/09/02 01:26:54;;;;;;;9.23;7.13;;;;;;;;;;2017009;29;20494;-87
2022/09/02 01:28:06;;;;;;;11.30;6.90;;;;;;;;;;2016886;29;20037;-87
2022/09/02 01:29:06;;;;;;;8.55;7.05;;;;;;;;;;2016741;29;20489;-87
2022/09/02 01:30:11;;;;;;;13.63;8.02;;;;;;;;;;2008172;29;20037;-87
2022/09/02 01:31:11;;;;;;;11.68;7.63;;;;;;;;;;2000998;29;20037;-87
2022/09/02 01:32:12;;;;;;;13.35;9.07;;;;;;;;;;2000589;29;20489;-86
2022/09/02 01:33:12;;;;;;;13.18;7.97;;;;;;;;;;2008282;29;20055;-89
2022/09/02 01:34:13;;;;;;;9.90;7.78;;;;;;;;;;2016623;29;20469;-86
2022/09/02 01:35:14;;;;;;;12.15;7.97;;;;;;;;;;2008404;29;20037;-86
2022/09/02 01:36:15;;;;;;;9.70;7.15;;;;;;;;;;2008346;29;20037;-88
2022/09/02 01:37:16;;;;;;;11.23;7.55;;;;;;;;;;2008205;29;20192;-88
2022/09/02 01:38:17;;;;;;;13.43;8.10;;;;;;;;;;2008340;29;20742;-88
2022/09/02 01:39:18;;;;;;;13.75;7.72;;;;;;;;;;2016662;29;20408;-88
2022/09/02 01:40:18;;;;;;;12.55;8.23;;;;;;;;;;2016635;29;20040;-87
2022/09/02 01:41:19;;;;;;;12.82;8.15;;;;;;;;;;2008410;29;20115;-87
2022/09/02 01:42:20;;;;;;;14.50;8.32;;;;;;;;;;2000622;29;20030;-87
2022/09/02 01:43:25;;;;;;;13.73;8.13;;;;;;;;;;2008362;29;20473;-88
2022/09/02 01:44:26;;;;;;;11.90;7.47;;;;;;;;;;2008190;29;20121;-87
2022/09/02 01:45:28;;;;;;;17.10;8.13;;;;;;;;;;2008260;29;20532;-87
2022/09/02 01:46:28;;;;;;;12.70;8.02;;;;;;;;;;2016695;29;20104;-87
2022/09/02 01:47:29;;;;;;;12.70;7.85;;;;;;;;;;2016685;29;20401;-88
2022/09/02 01:48:29;;;;;;;11.32;7.70;;;;;;;;;;2016923;29;20128;-87
2022/09/02 01:49:30;;;;;;;10.18;7.40;;;;;;;;;;2016583;29;20161;-87
2022/09/02 01:50:31;;;;;;;11.05;7.88;;;;;;;;;;2016554;29;20445;-87
2022/09/02 01:51:32;;;;;;;9.52;7.28;;;;;;;;;;2008170;29;20040;-88
2022/09/02 01:52:33;;;;;;;12.98;8.40;;;;;;;;;;2000473;29;20523;-86
2022/09/02 01:53:34;;;;;;;10.32;7.65;;;;;;;;;;2000696;29;20121;-86
2022/09/02 01:54:34;;;;;;;12.52;8.18;;;;;;;;;;2000706;29;20037;-87
2022/09/02 01:55:35;;;;;;;15.18;8.63;;;;;;;;;;2008183;29;20131;-86
2022/09/02 01:56:36;;;;;;;11.07;7.82;;;;;;;;;;2016608;29;20485;-86
2022/09/02 01:57:36;;;;;;;13.35;7.72;;;;;;;;;;2015698;29;20410;-86
2022/09/02 01:58:36;;;;;;;14.02;8.32;;;;;;;;;;2015866;29;20115;-86
2022/09/02 01:59:37;;;;;;;10.95;7.63;;;;;;;;;;2016422;29;20128;-86
2022/09/02 02:00:38;;;;;;;15.13;8.25;;;;;;;;;;2008124;29;20044;-86
2022/09/02 02:01:38;;;;;;;15.45;8.52;;;;;;;;;;2008022;29;20030;-86
2022/09/02 02:02:39;;;;;;;13.07;7.40;;;;;;;;;;2016491;29;20229;-88
2022/09/02 02:03:40;;;;;;;15.25;8.82;;;;;;;;;;2016456;29;20036;-87
2022/09/02 02:04:40;;;;;;;13.75;7.88;;;;;;;;;;2016425;29;20103;-87
2022/09/02 02:05:41;;;;;;;10.25;7.82;;;;;;;;;;2016298;29;20044;-87
2022/09/02 02:06:44;;;;;;;12.50;7.78;;;;;;;;;;2008204;29;20074;-87
2022/09/02 02:07:44;;;;;;;13.80;8.15;;;;;;;;;;2008329;29;20037;-87
2022/09/02 02:08:45;;;;;;;14.57;8.63;;;;;;;;;;2008181;29;20037;-87
2022/09/02 02:09:45;;;;;;;12.68;8.98;;;;;;;;;;2007985;29;20595;-87
2022/09/02 02:10:46;;;;;;;9.55;7.57;;;;;;;;;;2016337;29;20096;-88
2022/09/02 02:11:47;;;;;;;10.60;7.65;;;;;;;;;;2016339;29;20032;-87
2022/09/02 02:12:48;;;;;;;11.55;8.15;;;;;;;;;;2016441;29;20064;-88
2022/09/02 02:13:49;;;;;;;12.90;8.20;;;;;;;;;;2016337;29;20511;-87
2022/09/02 02:14:49;;;;;;;11.55;8.20;;;;;;;;;;2016452;29;20036;-87
2022/09/02 02:15:50;;;;;;;10.30;8.43;;;;;;;;;;2016217;29;20108;-87
2022/09/02 02:16:50;;;;;;;15.32;7.75;;;;;;;;;;2016274;29;20500;-87
2022/09/02 02:17:51;;;;;;;11.50;7.85;;;;;;;;;;2016318;29;20029;-87
2022/09/02 02:18:51;;;;;;;12.07;8.07;;;;;;;;;;2016366;29;20404;-87
2022/09/02 02:19:52;;;;;;;12.20;7.65;;;;;;;;;;2016318;29;20108;-87
2022/09/02 02:20:52;;;;;;;10.23;7.43;;;;;;;;;;2015527;29;20487;-89
2022/09/02 02:21:53;;;;;;;9.68;7.88;;;;;;;;;;2015626;29;20057;-88
2022/09/02 02:22:53;;;;;;;14.05;7.72;;;;;;;;;;2016488;29;20035;-88
2022/09/02 02:23:54;;;;;;;11.98;8.45;;;;;;;;;;2015521;29;20076;-88
2022/09/02 02:24:54;;;;;;;13.35;8.98;;;;;;;;;;2015477;29;20039;-88
2022/09/02 02:25:55;;;;;;;12.68;8.77;;;;;;;;;;2007846;29;20033;-88
2022/09/02 02:26:55;;;;;;;12.57;9.10;;;;;;;;;;2000305;29;20277;-88
2022/09/02 02:27:55;;;;;;;16.13;9.23;;;;;;;;;;2008055;29;20201;-88
2022/09/02 02:28:56;;;;;;;11.60;8.40;;;;;;;;;;2007912;29;20037;-88
2022/09/02 02:29:57;;;;;;;18.25;8.52;;;;;;;;;;2007977;29;20116;-88
2022/09/02 02:30:59;;;;;;;12.32;8.18;;;;;;;;;;2016125;29;20064;-88
2022/09/02 02:32:00;;;;;;;12.88;8.45;;;;;;;;;;2016300;29;20107;-89
2022/09/02 02:33:00;;;;;;;12.65;8.23;;;;;;;;;;2016197;29;20033;-88
2022/09/02 02:34:00;;;;;;;12.73;8.07;;;;;;;;;;2016222;29;20097;-88
2022/09/02 02:35:02;;;;;;;11.20;7.75;;;;;;;;;;2007752;29;20037;-89
2022/09/02 02:36:04;;;;;;;9.60;7.93;;;;;;;;;;2007911;29;20041;-89
2022/09/02 02:37:05;;;;;;;12.65;7.90;;;;;;;;;;2007676;29;20280;-88
2022/09/02 02:38:07;;;;;;;10.90;8.07;;;;;;;;;;2007850;29;20189;-88
2022/09/02 02:39:17;;;;;;;10.61;7.58;;;;;;;;;;1978783;29;10332162;-88
2022/09/02 02:40:20;;;;;;;11.75;8.65;;;;;;;;;;2015611;29;20318;-88
2022/09/02 02:41:21;;;;;;;11.02;7.53;;;;;;;;;;2015555;29;20025;-89
2022/09/02 02:42:22;;;;;;;12.10;7.82;;;;;;;;;;2007924;29;20055;-88
2022/09/02 02:43:24;;;;;;;12.15;8.10;;;;;;;;;;2007702;29;20193;-89
2022/09/02 02:44:24;;;;;;;15.02;8.27;;;;;;;;;;2015579;29;20098;-89
2022/09/02 02:45:25;;;;;;;10.05;7.75;;;;;;;;;;2016121;29;20495;-89
2022/09/02 02:46:25;;;;;;;12.70;7.63;;;;;;;;;;2016295;29;20683;-88
2022/09/02 02:47:26;;;;;;;11.32;7.28;;;;;;;;;;2016087;29;20036;-88
2022/09/02 02:48:27;;;;;;;11.38;7.53;;;;;;;;;;2016151;29;20032;-88
2022/09/02 02:49:28;;;;;;;10.60;8.68;;;;;;;;;;2016087;29;20100;-88
2022/09/02 02:50:28;;;;;;;14.35;8.25;;;;;;;;;;2015368;29;20380;-88
2022/09/02 02:51:28;;;;;;;12.30;8.20;;;;;;;;;;2015242;29;20469;-88
2022/09/02 02:52:29;;;;;;;12.15;8.27;;;;;;;;;;2015483;29;20060;-88
2022/09/02 02:53:30;;;;;;;14.93;8.75;;;;;;;;;;2007657;29;20124;-88
2022/09/02 02:54:30;;;;;;;12.05;8.40;;;;;;;;;;2007783;29;20041;-88
2022/09/02 02:55:30;;;;;;;13.73;9.25;;;;;;;;;;2007705;29;20125;-88
2022/09/02 02:56:31;;;;;;;14.77;8.23;;;;;;;;;;1657714;29;10255162;-88
2022/09/02 02:57:33;;;;;;;12.57;8.27;;;;;;;;;;2007926;29;20073;-88
2022/09/02 02:58:33;;;;;;;14.07;8.93;;;;;;;;;;2016272;29;20025;-88
2022/09/02 02:59:35;;;;;;;12.48;8.52;;;;;;;;;;2016007;29;20132;-88
2022/09/02 03:00:36;;;;;;;15.85;8.43;;;;;;;;;;2016010;29;20539;-88
2022/09/02 03:01:37;;;;;;;14.02;8.32;;;;;;;;;;2007562;29;20108;-88
2022/09/02 03:02:37;;;;;;;11.57;8.02;;;;;;;;;;2007728;29;20029;-88
2022/09/02 03:03:38;;;;;;;13.30;7.97;;;;;;;;;;2016046;29;20056;-88
2022/09/02 03:04:38;;;;;;;12.38;8.20;;;;;;;;;;1670852;29;10261778;-88
2022/09/02 03:05:39;;;;;;;15.25;8.45;;;;;;;;;;2016197;29;20032;-88
2022/09/02 03:06:40;;;;;;;13.88;8.73;;;;;;;;;;2016068;29;20044;-88
2022/09/02 03:07:40;;;;;;;12.77;8.18;;;;;;;;;;2016270;29;20113;-88
2022/09/02 03:08:41;;;;;;;16.83;8.75;;;;;;;;;;2016113;29;20128;-88
2022/09/02 03:09:41;;;;;;;17.10;7.70;;;;;;;;;;2016101;29;20076;-88
2022/09/02 03:10:43;;;;;;;11.77;7.30;;;;;;;;;;2007556;29;20053;-88
2022/09/02 03:11:43;;;;;;;12.45;7.25;;;;;;;;;;2007805;29;20064;-88
2022/09/02 03:12:46;;;;;;;13.27;7.53;;;;;;;;;;2015237;29;20469;-87
2022/09/02 03:13:48;;;;;;;11.07;7.32;;;;;;;;;;2007656;29;20534;-88
2022/09/02 03:14:49;;;;;;;8.95;8.00;;;;;;;;;;2007899;29;20529;-89
2022/09/02 03:15:50;;;;;;;11.98;8.18;;;;;;;;;;2007577;29;20034;-86
2022/09/02 03:16:50;;;;;;;12.73;7.88;;;;;;;;;;2007550;29;20131;-88
2022/09/02 03:17:52;;;;;;;12.40;7.90;;;;;;;;;;2007590;29;20073;-87
2022/09/02 03:18:53;;;;;;;14.30;7.65;;;;;;;;;;2000136;29;20034;-87
2022/09/02 03:19:53;;;;;;;13.93;7.45;;;;;;;;;;2007773;29;20109;-88
2022/09/02 03:20:54;;;;;;;13.93;7.90;;;;;;;;;;2007505;29;20033;-87
2022/09/02 03:21:54;;;;;;;11.20;6.97;;;;;;;;;;2007465;29;20029;-87
2022/09/02 03:22:57;;;;;;;11.23;8.15;;;;;;;;;;2007579;29;20025;-88
2022/09/02 03:23:58;;;;;;;11.40;8.23;;;;;;;;;;2008045;29;20144;-87
2022/09/02 03:24:59;;;;;;;12.15;7.47;;;;;;;;;;2015154;29;20033;-87
2022/09/02 03:25:59;;;;;;;14.13;7.75;;;;;;;;;;2015427;29;20036;-87
2022/09/02 03:26:59;;;;;;;10.85;7.75;;;;;;;;;;2015167;29;20055;-87
2022/09/02 03:28:01;;;;;;;12.05;7.28;;;;;;;;;;2000039;29;20783;-87
2022/09/02 03:29:03;;;;;;;10.18;7.07;;;;;;;;;;1999833;29;20458;-87
2022/09/02 03:30:07;;;;;;;11.30;8.15;;;;;;;;;;2007519;29;20039;-87
2022/09/02 03:31:13;;;;;;;11.35;7.50;;;;;;;;;;2007531;29;20018;-87
2022/09/02 03:32:14;;;;;;;12.35;7.72;;;;;;;;;;2000730;29;20022;-87
2022/09/02 03:33:15;;;;;;;12.10;6.95;;;;;;;;;;2007691;29;20525;-86
2022/09/02 03:34:15;;;;;;;10.90;7.85;;;;;;;;;;2015509;29;20454;-87
2022/09/02 03:35:18;;;;;;;10.25;7.22;;;;;;;;;;2015411;29;20161;-87
2022/09/02 03:36:27;;;;;;;16.05;7.82;;;;;;;;;;2015689;29;20061;-87
2022/09/02 03:37:28;;;;;;;13.18;8.57;;;;;;;;;;2015931;29;20029;-87
2022/09/02 03:38:28;;;;;;;10.10;7.07;;;;;;;;;;2016030;29;20029;-87
2022/09/02 03:39:29;;;;;;;9.93;6.93;;;;;;;;;;1664375;29;10241220;-86
2022/09/02 03:40:29;;;;;;;11.98;7.32;;;;;;;;;;2007568;29;20022;-87
2022/09/02 03:41:30;;;;;;;11.55;7.63;;;;;;;;;;2015757;29;20112;-86
2022/09/02 03:42:30;;;;;;;10.05;7.05;;;;;;;;;;2015828;29;20035;-87
2022/09/02 03:43:30;;;;;;;13.98;8.63;;;;;;;;;;2007383;29;20521;-88
2022/09/02 03:44:33;;;;;;;11.25;7.65;;;;;;;;;;2007543;29;20105;-88
2022/09/02 03:45:33;;;;;;;11.85;7.38;;;;;;;;;;2007369;29;20083;-88
2022/09/02 03:46:34;;;;;;;11.82;6.80;;;;;;;;;;2007509;29;20033;-87
2022/09/02 03:47:35;;;;;;;9.68;6.85;;;;;;;;;;2015063;29;20055;-88
2022/09/02 03:48:36;;;;;;;11.55;7.10;;;;;;;;;;2014978;29;20059;-87
2022/09/02 03:49:37;;;;;;;9.23;6.65;;;;;;;;;;2007361;29;20112;-88
2022/09/02 03:50:39;;;;;;;10.75;7.05;;;;;;;;;;2015679;29;20025;-88
2022/09/02 03:51:42;;;;;;;11.82;7.20;;;;;;;;;;2015827;29;20043;-88
2022/09/02 03:52:42;;;;;;;11.02;7.38;;;;;;;;;;1664123;29;10246732;-88
2022/09/02 03:53:43;;;;;;;16.63;7.78;;;;;;;;;;2007404;29;20029;-88
2022/09/02 03:54:43;;;;;;;14.32;8.30;;;;;;;;;;2007439;29;20528;-88
2022/09/02 03:55:44;;;;;;;9.43;6.95;;;;;;;;;;2015726;29;20033;-88
2022/09/02 03:56:44;;;;;;;9.60;6.85;;;;;;;;;;2007257;29;20029;-88
2022/09/02 03:57:45;;;;;;;9.02;6.95;;;;;;;;;;2007635;29;20064;-88
2022/09/02 03:58:48;;;;;;;11.77;7.63;;;;;;;;;;2015858;29;20052;-88
2022/09/02 03:59:48;;;;;;;8.50;6.25;;;;;;;;;;2007537;29;20056;-88
2022/09/02 04:00:51;;;;;;;10.70;7.28;;;;;;;;;;2007368;29;20161;-89
2022/09/02 04:01:52;;;;;;;11.30;8.13;;;;;;;;;;1674724;29;10137069;-88
2022/09/02 04:02:54;;;;;;;11.25;6.93;;;;;;;;;;2007279;29;20029;-88
2022/09/02 04:03:55;;;;;;;11.65;7.20;;;;;;;;;;2007640;29;20037;-89
2022/09/02 04:04:55;;;;;;;12.48;7.72;;;;;;;;;;2015890;29;20021;-88
2022/09/02 04:05:56;;;;;;;15.13;7.45;;;;;;;;;;2007500;29;20114;-89
2022/09/02 04:06:58;;;;;;;11.82;7.32;;;;;;;;;;2007368;29;20033;-87
2022/09/02 04:07:59;;;;;;;10.98;7.43;;;;;;;;;;1999748;29;20029;-88
2022/09/02 04:09:00;;;;;;;11.63;7.00;;;;;;;;;;2007396;29;20092;-88
2022/09/02 04:10:00;;;;;;;13.27;7.72;;;;;;;;;;2015073;29;20055;-87
2022/09/02 04:11:08;;;;;;;12.90;7.43;;;;;;;;;;2015065;29;20109;-88
2022/09/02 04:12:08;;;;;;;13.77;7.22;;;;;;;;;;2015828;29;20031;-89
2022/09/02 04:13:10;;;;;;;10.80;6.93;;;;;;;;;;2007333;29;20060;-88
2022/09/02 04:14:11;;;;;;;12.35;6.72;;;;;;;;;;2007289;29;20033;-88
2022/09/02 04:15:12;;;;;;;10.25;6.60;;;;;;;;;;1999648;29;20462;-87
2022/09/02 04:16:16;;;;;;;12.60;7.25;;;;;;;;;;1999751;29;20045;-87
2022/09/02 04:17:16;;;;;;;13.10;7.63;;;;;;;;;;2007817;29;20040;-88
2022/09/02 04:18:17;;;;;;;10.30;6.35;;;;;;;;;;2015692;29;20068;-88
2022/09/02 04:19:17;;;;;;;12.05;7.72;;;;;;;;;;2007332;29;20053;-87
2022/09/02 04:20:18;;;;;;;13.52;7.80;;;;;;;;;;2007385;29;20021;-88
2022/09/02 04:21:18;;;;;;;9.93;7.05;;;;;;;;;;2015570;29;20059;-88
2022/09/02 04:22:19;;;;;;;13.27;8.30;;;;;;;;;;2015710;29;20028;-88
2022/09/02 04:23:19;;;;;;;16.30;7.85;;;;;;;;;;2007277;29;20467;-86
2022/09/02 04:24:20;;;;;;;10.02;7.00;;;;;;;;;;2007301;29;20144;-87
2022/09/02 04:25:22;;;;;;;10.15;7.22;;;;;;;;;;2007260;29;20824;-88
2022/09/02 04:26:23;;;;;;;13.32;7.07;;;;;;;;;;2007594;29;20100;-88
2022/09/02 04:27:23;;;;;;;9.50;7.10;;;;;;;;;;2007142;29;20036;-87
2022/09/02 04:28:24;;;;;;;11.15;7.00;;;;;;;;;;2007331;29;20026;-87
2022/09/02 04:29:25;;;;;;;13.57;7.70;;;;;;;;;;2007252;29;20603;-89
2022/09/02 04:30:25;;;;;;;12.43;7.38;;;;;;;;;;2007467;29;20089;-87
2022/09/02 04:31:30;;;;;;;15.20;8.20;;;;;;;;;;2015735;29;20060;-86
2022/09/02 04:32:31;;;;;;;10.10;7.05;;;;;;;;;;2007353;29;20033;-88
2022/09/02 04:33:32;;;;;;;11.50;7.88;;;;;;;;;;2007186;29;20151;-87
2022/09/02 04:34:33;;;;;;;9.15;6.70;;;;;;;;;;2007237;29;20026;-87
2022/09/02 04:35:34;;;;;;;10.80;6.80;;;;;;;;;;1999681;29;20030;-87
2022/09/02 04:36:35;;;;;;;9.13;6.38;;;;;;;;;;1999911;29;20605;-87
2022/09/02 04:37:35;;;;;;;9.68;6.60;;;;;;;;;;2007398;29;20093;-87
2022/09/02 04:38:36;;;;;;;9.00;5.63;;;;;;;;;;2015750;29;20035;-88
2022/09/02 04:39:36;;;;;;;8.77;6.57;;;;;;;;;;2007307;29;20148;-87
2022/09/02 04:40:42;;;;;;;7.50;5.68;;;;;;;;;;2007391;29;20097;-87
2022/09/02 04:41:42;;;;;;;11.35;5.78;;;;;;;;;;2015974;29;20048;-87
2022/09/02 04:42:43;;;;;;;10.35;5.75;;;;;;;;;;2015725;29;20021;-87
2022/09/02 04:43:43;;;;;;;9.65;5.68;;;;;;;;;;2016257;29;20426;-87
2022/09/02 04:44:45;;;;;;;9.82;5.65;;;;;;;;;;2016030;29;20032;-89
2022/09/02 04:45:46;;;;;;;10.90;5.68;;;;;;;;;;1670921;29;10247218;-88
2022/09/02 04:46:49;;;;;;;7.70;6.28;;;;;;;;;;2007270;29;20022;-87
2022/09/02 04:48:07;;;;;;;9.77;6.03;;;;;;;;;;2012978;29;20085;-94
2022/09/02 04:49:07;;;;;;;9.38;5.35;;;;;;;;;;2012297;29;20128;-95
2022/09/02 04:50:08;;;;;;;8.52;5.35;;;;;;;;;;2011114;29;20065;-95
2022/09/02 04:51:16;;;;;;;11.23;5.95;;;;;;;;;;2019193;29;20077;-96
2022/09/02 04:52:32;;;;;;;9.82;5.32;;;;;;;;;;2014437;29;20026;-96
2022/09/02 04:53:36;;;;;;;8.98;6.10;;;;;;;;;;2017156;29;20037;-96
2022/09/02 04:54:44;;;;;;;8.75;5.50;;;;;;;;;;2021416;29;20029;-96
2022/09/02 04:55:45;;;;;;;9.73;5.43;;;;;;;;;;2020956;29;20032;-95
2022/09/02 04:56:46;;;;;;;9.60;6.18;;;;;;;;;;2020370;29;20113;-96
2022/09/02 04:57:46;;;;;;;8.32;5.55;;;;;;;;;;2013057;29;20082;-96
2022/09/02 04:58:52;;;;;;;9.38;5.90;;;;;;;;;;2013484;29;20028;-96
2022/09/02 04:59:56;;;;;;;7.97;5.90;;;;;;;;;;2020924;29;20025;-96
2022/09/02 05:00:56;;;;;;;11.15;5.88;;;;;;;;;;2014241;29;20409;-96
2022/09/02 05:01:57;;;;;;;11.50;6.82;;;;;;;;;;2001161;29;20033;-88
2022/09/02 05:02:57;;;;;;;11.57;7.65;;;;;;;;;;2008592;29;20056;-89
2022/09/02 05:04:00;;;;;;;11.00;7.63;;;;;;;;;;2016909;29;20113;-89
2022/09/02 05:05:00;;;;;;;11.50;7.20;;;;;;;;;;2017015;29;20116;-88
2022/09/02 05:06:04;;;;;;;9.40;6.97;;;;;;;;;;2016034;29;20036;-88
2022/09/02 05:07:04;;;;;;;10.63;6.90;;;;;;;;;;2016114;29;20126;-89
2022/09/02 05:08:05;;;;;;;10.15;6.15;;;;;;;;;;2016893;29;20029;-88
2022/09/02 05:09:07;;;;;;;8.10;6.00;;;;;;;;;;2016720;29;20035;-89
2022/09/02 05:10:08;;;;;;;10.07;6.38;;;;;;;;;;2011773;29;20428;-87
2022/09/02 05:11:17;;;;;;;7.85;5.38;;;;;;;;;;2016001;29;20428;-89
2022/09/02 05:12:17;;;;;;;7.65;5.32;;;;;;;;;;2021172;29;20029;-88
2022/09/02 05:13:18;;;;;;;10.00;5.57;;;;;;;;;;2016183;29;20107;-89
2022/09/02 05:14:19;;;;;;;10.85;6.05;;;;;;;;;;2015788;29;20556;-89
2022/09/02 05:15:19;;;;;;;9.55;5.35;;;;;;;;;;2013871;29;20154;-89
2022/09/02 05:16:23;;;;;;;6.25;5.07;;;;;;;;;;2015286;29;20036;-89
2022/09/02 05:17:23;;;;;;;9.90;5.53;;;;;;;;;;2013564;29;20518;-89
2022/09/02 05:18:23;;;;;;;9.43;5.53;;;;;;;;;;2012690;29;20124;-89
2022/09/02 05:19:30;;;;;;;10.80;4.93;;;;;;;;;;1861333;29;10355590;-88
2022/09/02 05:20:31;;;;;;;7.68;5.63;;;;;;;;;;2004159;29;20243;-89
2022/09/02 05:21:32;;;;;;;6.80;5.63;;;;;;;;;;1698147;29;10363254;-89
2022/09/02 05:22:35;;;;;;;9.10;5.25;;;;;;;;;;1672823;29;10365491;-89
2022/09/02 05:23:38;;;;;;;10.77;5.53;;;;;;;;;;2015171;29;20439;-89
2022/09/02 05:24:41;;;;;;;9.02;5.65;;;;;;;;;;1762790;29;10186948;-89
2022/09/02 05:25:42;;;;;;;9.93;5.40;;;;;;;;;;2020301;29;20246;-89
2022/09/02 05:26:45;;;;;;;8.20;5.45;;;;;;;;;;2024487;29;20496;-88
2022/09/02 05:27:46;;;;;;;8.73;6.10;;;;;;;;;;2016100;29;20021;-88
2022/09/02 05:28:46;;;;;;;9.27;6.07;;;;;;;;;;2015697;29;20052;-89
2022/09/02 05:29:46;;;;;;;9.70;5.65;;;;;;;;;;1972220;29;20140;-89
2022/09/02 05:30:47;;;;;;;10.15;6.07;;;;;;;;;;1998043;29;20045;-89
2022/09/02 05:31:47;;;;;;;11.45;6.38;;;;;;;;;;2014507;29;20059;-89
2022/09/02 05:32:48;;;;;;;7.07;5.53;;;;;;;;;;2015351;29;20033;-89
2022/09/02 05:33:49;;;;;;;8.73;5.72;;;;;;;;;;2015348;29;20394;-89
2022/09/02 05:34:49;;;;;;;9.82;6.22;;;;;;;;;;2007791;29;20134;-89
2022/09/02 05:35:52;;;;;;;10.70;6.85;;;;;;;;;;2015626;29;20036;-88
2022/09/02 05:36:52;;;;;;;8.35;5.80;;;;;;;;;;2024024;29;20261;-89
2022/09/02 05:37:52;;;;;;;8.20;5.35;;;;;;;;;;2024072;29;20085;-89
2022/09/02 05:38:53;;;;;;;9.25;5.22;;;;;;;;;;2015271;29;20173;-89
2022/09/02 05:39:53;;;;;;;10.32;5.82;;;;;;;;;;2007815;29;20524;-89
2022/09/02 05:41:06;;;;;;;6.94;5.42;;;;;;;;;;1881233;29;10293159;-88
2022/09/02 05:42:07;;;;;;;12.63;5.80;;;;;;;;;;2015360;29;20330;-88
2022/09/02 05:43:08;;;;;;;11.73;6.07;;;;;;;;;;2015691;29;20077;-87
2022/09/02 05:44:08;;;;;;;10.98;6.00;;;;;;;;;;2023328;29;20559;-87
2022/09/02 05:45:10;;;;;;;7.60;5.30;;;;;;;;;;2015077;29;20148;-88
2022/09/02 05:46:16;;;;;;;8.00;5.68;;;;;;;;;;2015500;29;20040;-88
2022/09/02 05:47:16;;;;;;;12.25;5.75;;;;;;;;;;2024536;29;20325;-88
2022/09/02 05:49:37;;;;;;;7.85;5.25;;;;;;;;;;1677267;29;10259752;-88
2022/09/02 05:50:37;;;;;;;6.85;4.18;;;;;;;;;;2023815;29;20028;-89
2022/09/02 05:51:51;;;;;;;8.23;5.25;;;;;;;;;;2023547;29;20170;-88
2022/09/02 05:52:52;;;;;;;8.00;4.68;;;;;;;;;;2015172;29;20572;-88
2022/09/02 05:53:57;;;;;;;7.15;4.80;;;;;;;;;;2015137;29;20025;-88
2022/09/02 05:54:59;;;;;;;7.97;4.70;;;;;;;;;;2015284;29;20518;-88
2022/09/02 05:56:03;;;;;;;6.20;4.85;;;;;;;;;;2015297;29;20479;-88
2022/09/02 05:57:08;;;;;;;11.68;5.07;;;;;;;;;;2023653;29;20039;-87
2022/09/02 05:58:08;;;;;;;8.85;5.22;;;;;;;;;;2023366;29;20052;-88
2022/09/02 05:59:09;;;;;;;6.15;4.72;;;;;;;;;;2023695;29;20032;-87
2022/09/02 06:00:10;;;;;;;7.50;4.75;;;;;;;;;;2015385;29;20081;-88
2022/09/02 06:01:13;;;;;;;9.82;4.63;;;;;;;;;;2015268;29;20080;-88
2022/09/02 06:02:16;;;;;;;7.95;5.25;;;;;;;;;;2023925;29;20405;-88
2022/09/02 06:03:18;;;;;;;7.78;4.80;;;;;;;;;;2015581;29;20031;-88
2022/09/02 06:04:19;;;;;;;7.45;4.72;;;;;;;;;;2015653;29;20100;-87
2022/09/02 06:05:19;;;;;;;9.85;5.07;;;;;;;;;;2024064;29;20449;-88
2022/09/02 06:06:21;;;;;;;7.85;4.20;;;;;;;;;;2024332;29;20088;-88
2022/09/02 06:07:23;;;;;;;9.15;5.43;;;;;;;;;;2023629;29;20051;-88